Share

Bloomfield, NM (87413)

Crouch Mesa (KNMAZTEC4) Elev 5797 ft | 36.77 °N, 108.06 °W | Change Station

Current weather conditions updated 5 seconds ago

Clear
Clear
62.6 °F
Feels Like 62.6 °F
N
9.2
Wind Variable Wind from North
Gusts 9.2 mph
Sunrise 6:35 AM
Sunset 7:48 PM
Moon Waning Gibbous

Today is forecast to be nearly the same temperature as yesterday.

Pressure 30.07 in
Visibility 10.0 miles
Clouds Clear
Dew Point 21 °F
Humidity 20%
Rainfall 0.00 in
Snow Depth Not available.
UV 10 out of 16
Pollen 9.10 out of 12
Air Quality Not available.
Flu Activity Local Activity
METAR KFMN 171753Z VRB03KT 10SM CLR 14/M07 A3014 RMK AO2 SLP182 T01441067 10144 21022 50001

More Conditions Fewer Conditions

Pressure 30.07 in
Visibility 10.0 miles
Clouds Clear
Dew Point 21 °F
Humidity 20%
Rainfall 0.00 in
Snow Depth Not available.
UV 10 out of 16
Pollen 9.10 out of 12
Air Quality Not available.
Flu Activity Local Activity
METAR KFMN 171753Z VRB03KT 10SM CLR 14/M07 A3014 RMK AO2 SLP182 T01441067 10144 21022 50001

More Conditions Fewer Conditions

10-Day Forecast

Almanac

Astronomy

Apr. 17, 2014 Rise Set
Actual Time 6:35 AM MDT 7:48 PM MDT
Civil Twilight 6:08 AM MDT 8:15 PM MDT
Nautical Twilight 5:36 AM MDT 8:47 PM MDT
Astronomical Twilight 5:03 AM MDT 9:20 PM MDT
Moon 10:33 PM MDT 8:12 AM MDT
Length of Visible Light 14h 06m
Length of Day
13h 12m
Tomorrow will be 2m 13s longer.
Waning Gibbous, 93% of the Moon is Illuminated
Today
Waning Gibbous
Apr 22
Last Quarter
Apr 29
New
May 6
First Quarter
May 14
Full

Today's Extremes

State Highs State Lows

Community

  • New Day
    New Day
  • Lake Michigan Sunrise
    Lake Michigan Sunrise
  • sunset from izmir, narlıdere
    sunset from izmir, narlıdere
  • oregon cherry
    oregon cherry
  • Sunset over the Bay
    Sunset over the Bay

WunderPhotos

Upload Photos

1,702,094 photos uploaded!

Nearby

Snow Depth

Station Depth Elevation
Senorita Divide #2 0 in 8600 ft
Bateman 10 in 9300 ft
Hopewell 28 in 10000 ft
Quemazon 0 in 9500 ft
Santa Fe 31 in 11445 ft

Coastal Water Temperatures

Place Temperature
No Stations Reporting

Earthquake Activity

City Distance Mag. Time & Date
No recent earthquake activity has been reported nearby.
Minimum magnitude displayed is 2.5.

Nearby Weather Stations

Station Location Temp. Dew Point Humidity Wind Precip. Elev Updated Type
Crouch Mesa, Aztec, NM 62.6 °F 21 °F 20% North  at  9.2 mph 0.00 in / hr 5797 ft 12:47 PM MDT Rapid Fire
Butler and 23rd Street, Farmington, NM 64.0 °F 22 °F 20% West  at  10.0 mph 0.00 in / hr 5515 ft 12:47 PM MDT Rapid Fire
La Plata River, La Plata, NM 61.0 °F 23 °F 22% SSW  at  12.6 mph 0.00 in / hr 5600 ft 12:48 PM MDT Rapid Fire
8 miles North of Farmington, NM, La Plata, NM 62.8 °F 23 °F 22% West  at  10.0 mph 0.00 in / hr 5663 ft 12:41 PM MDT Normal

Show More Stations Show Fewer Stations

What do you think?

We're not finished. Please let us know what you like, what you don't like, and what you are still missing.